Latest Coastal Weather Observations for Yamba

IDN60701

Issued at 9:21 am EDT Wednesday 14 November 2018 (issued every 10 minutes, with the page automatically refreshed every 10 minutes)

About coastal observations | Map of coastal stations | Coastal observations for NSW | Marine services | Other Formats
Station Details ID: 058012 Name: YAMBA PILOT STATION Lat: -29.43 Lon: 153.36 Height: 27.4 m
Data from the previous 72 hours. | See also: Recent months at Yamba
Date/Time
EDT
Wind Sea
Height
m
Swell Vis
km
Cloud Weather Temp
°C
Press
hPa
Rain since
9am
mm
Dir  Spd
kts
Gust
kts
Height
m
Period
s
Dir
14/09:00am W 5 7 - - - - - - - 22.3 1018.9 0.0
14/08:30am WSW 5 7 - - - - - - - 21.1 1018.8 0.0
14/08:00am W 5 9 - - - - - - - 20.5 1018.5 0.0
14/07:30am W 5 8 - - - - - - - 19.1 1018.4 0.0
14/07:00am W 5 7 - - - - - - - 17.9 1018.1 0.0
14/06:30am W 6 8 - - - - - - - 16.6 1017.9 0.0
14/06:00am W 5 7 - - - - - - - 16.3 1017.5 0.0
14/05:30am WSW 6 8 - - - - - - - 16.5 1017.1 0.0
14/05:00am W 5 8 - - - - - - - 16.5 1017.0 0.0
14/04:30am W 6 8 - - - - - - - 16.7 1016.7 0.0
14/04:00am WSW 5 8 - - - - - - - 16.9 1016.8 0.0
14/03:30am WSW 4 6 - - - - - - - 16.9 1016.7 0.0
14/03:00am WSW 4 6 - - - - - - - 17.1 1017.0 0.0
14/02:30am WSW 5 6 - - - - - - - 17.5 1017.2 0.0
14/02:00am WSW 4 6 - - - - - - - 17.7 1017.8 0.0
14/01:30am WSW 5 7 - - - - - - - 18.2 1018.2 0.0
14/01:00am WSW 5 6 - - - - - - - 18.1 1018.5 0.0
14/12:30am WSW 5 7 - - - - - - - 18.5 1018.8 0.0
14/12:00am WSW 5 7 - - - - - - - 18.5 1019.3 0.0
 
Date/Time
EDT
Wind Sea
Height
m
Swell Vis
km
Cloud Weather Temp
°C
Press
hPa
Rain since
9am
mm
Dir  Spd
kts
Gust
kts
Height
m
Period
s
Dir
13/11:30pm WSW 5 7 - - - - - - - 19.1 1019.5 0.0
13/11:00pm NNE 3 6 - - - - - - - 20.6 1019.3 0.0
13/10:30pm E 4 6 - - - - - - - 20.8 1019.4 0.0
13/10:00pm ENE 5 8 - - - - - - - 21.0 1019.4 0.0
13/09:30pm E 6 10 - - - - - - - 21.0 1019.2 0.0
13/09:00pm E 6 9 - - - - - - - 21.0 1019.1 0.0
13/08:30pm E 7 9 - - - - - - - 21.0 1018.9 0.0
13/08:00pm E 6 9 - - - - - - - 20.9 1019.0 0.0
13/07:30pm E 6 9 - - - - - - - 21.0 1018.8 0.0
13/07:00pm E 6 8 - - - - - - - 21.2 1018.5 0.0
13/06:30pm E 6 8 - - - - - - - 21.8 1018.3 0.0
13/06:00pm E 7 11 - - - - - - - 22.2 1017.9 0.0
13/05:30pm E 6 11 - - - - - - - 22.7 1018.2 0.0
13/05:00pm E 7 11 - - - - - - - 23.0 1018.0 0.0
13/04:30pm E 7 10 - - - - - - - 23.2 1018.1 0.0
13/04:00pm ESE 8 12 - - - - - - - 23.5 1018.3 0.0
13/03:30pm ESE 7 9 - - - - - - - 22.8 1018.7 0.0
13/03:00pm ESE 9 12 - - - - - - - 22.7 1019.0 0.0
13/02:30pm ESE 7 11 - - - - - - - 23.3 1019.3 0.0
13/02:00pm ESE 9 13 - - - - - - - 24.1 1019.3 0.0
13/01:30pm ESE 9 13 - - - - - - - 23.2 1019.7 0.0
13/01:00pm ESE 7 11 - - - - - - - 24.4 1019.9 0.0
13/12:30pm ESE 7 9 - - - - - - - 24.4 1020.2 0.0
13/12:00pm ESE 7 10 - - - - - - - 24.1 1020.5 0.0
13/11:30am SE 5 9 - - - - - - - 23.3 1020.8 0.0
13/11:00am ESE 6 8 - - - - - - - 24.7 1021.0 0.0
13/10:30am ESE 7 9 - - - - - - - 22.3 1021.0 0.0
13/10:00am SE 6 8 - - - - - - - 23.6 1020.9 0.0
13/09:30am SE 4 5 - - - - - - - 22.5 1020.8 0.0
13/09:00am W 2 4 - - - - - - - 21.4 1020.8 0.0
13/08:30am W 6 7 - - - - - - - 18.6 1021.1 0.0
13/08:00am WSW 6 7 - - - - - - - 17.4 1020.9 0.0
13/07:30am WSW 6 9 - - - - - - - 17.0 1020.7 0.0
13/07:00am WSW 6 8 - - - - - - - 16.0 1020.4 0.0
13/06:30am SW 6 9 - - - - - - - 15.6 1020.1 0.0
13/06:00am WSW 7 9 - - - - - - - 15.5 1020.0 0.0
13/05:30am W 7 8 - - - - - - - 15.4 1019.8 0.0
13/05:00am WSW 7 9 - - - - - - - 15.6 1019.7 0.0
13/04:30am WSW 5 7 - - - - - - - 16.1 1019.4 0.0
13/04:00am WSW 6 8 - - - - - - - 16.0 1019.7 0.0
13/03:30am WSW 6 8 - - - - - - - 16.5 1019.6 0.0
13/03:00am SW 6 7 - - - - - - - 16.9 1019.8 0.0
13/02:30am W 4 5 - - - - - - - 17.4 1019.9 0.0
13/02:00am SE 6 10 - - - - - - - 19.2 1020.0 0.0
13/01:30am SW 6 8 - - - - - - - 17.9 1020.3 0.0
13/01:00am SW 5 7 - - - - - - - 18.6 1020.7 0.0
13/12:30am SSE 7 9 - - - - - - - 20.1 1021.0 0.0
13/12:00am SE 7 10 - - - - - - - 20.2 1021.5 0.0
 
Date/Time
EDT
Wind Sea
Height
m
Swell Vis
km
Cloud Weather Temp
°C
Press
hPa
Rain since
9am
mm
Dir  Spd
kts
Gust
kts
Height
m
Period
s
Dir
12/11:30pm SE 8 10 - - - - - - - 20.4 1021.7 0.0
12/11:00pm SE 8 13 - - - - - - - 20.5 1021.9 0.0
12/10:30pm SE 9 13 - - - - - - - 20.5 1021.7 0.0
12/10:00pm SE 10 14 - - - - - - - 20.6 1021.6 0.0
12/09:30pm SE 10 13 - - - - - - - 20.5 1021.4 0.0
12/09:00pm SE 11 15 - - - - - - - 20.5 1021.2 0.0
12/08:30pm SE 12 15 - - - - - - - 20.5 1021.0 0.0
12/08:00pm SE 11 14 - - - - - - - 20.6 1021.0 0.0
12/07:30pm SE 9 12 - - - - - - - 20.5 1021.0 0.0
12/07:00pm SSE 10 13 - - - - - - - 20.9 1020.7 0.0
12/06:30pm SSE 12 14 - - - - - - - 21.4 1020.4 0.0
12/06:00pm SE 12 15 - - - - - - - 21.8 1020.2 0.0
12/05:30pm SE 13 17 - - - - - - - 22.2 1020.0 0.0
12/05:00pm SE 13 17 - - - - - - - 22.8 1020.0 0.0
12/04:30pm SE 12 15 - - - - - - - 23.0 1020.1 0.0
12/04:00pm SE 11 17 - - - - - - - 23.2 1020.1 0.0
12/03:30pm SE 12 17 - - - - - - - 22.6 1020.3 0.0
12/03:00pm SSE 12 14 - - - - - - - 24.2 1020.4 0.0
12/02:30pm SSE 12 15 - - - - - - - 23.7 1020.8 0.0
12/02:00pm SSE 12 15 - - - - - - - 24.2 1021.0 0.0
12/01:30pm SSE 13 16 - - - - - - - 23.9 1021.1 0.0
12/01:00pm SSE 13 16 - - - - - - - 23.7 1021.3 0.0
12/12:30pm SSE 12 19 - - - - - - - 23.8 1021.6 0.0
12/12:00pm SSE 13 18 - - - - - - - 22.9 1021.8 0.0
12/11:30am SSE 12 17 - - - - - - - 23.0 1022.1 0.0
12/11:00am SSE 12 18 - - - - - - - 23.1 1022.1 0.0
12/10:30am S 9 14 - - - - - - - 23.4 1022.1 0.0
12/10:00am SSE 10 16 - - - - - - - 23.1 1022.1 0.0
12/09:30am S 10 15 - - - - - - - 22.2 1022.1 0.0
12/09:00am S 9 14 - - - - - - - 22.4 1021.9 0.2
12/08:30am SW 5 7 - - - - - - - 19.8 1021.7 0.2
12/08:00am SW 5 9 - - - - - - - 19.2 1021.4 0.2
12/07:30am WSW 4 6 - - - - - - - 17.4 1021.2 0.2
12/07:00am W 5 7 - - - - - - - 16.3 1021.1 0.2
12/06:30am WSW 5 6 - - - - - - - 15.5 1021.0 0.2
12/06:00am WSW 4 6 - - - - - - - 15.6 1020.8 0.2
12/05:30am WSW 4 7 - - - - - - - 15.6 1020.6 0.2
12/05:00am WSW 5 7 - - - - - - - 15.8 1020.4 0.2
12/04:30am WSW 5 7 - - - - - - - 15.9 1020.2 0.2
12/04:00am WSW 5 7 - - - - - - - 16.3 1020.2 0.2
12/03:30am WSW 5 7 - - - - - - - 16.3 1020.2 0.2
12/03:00am WSW 5 6 - - - - - - - 16.8 1020.2 0.2
12/02:30am SW 5 7 - - - - - - - 17.3 1020.3 0.2
12/02:00am SW 5 7 - - - - - - - 17.7 1020.6 0.2
12/01:30am SW 4 7 - - - - - - - 18.2 1020.8 0.2
12/01:00am SW 4 6 - - - - - - - 18.8 1021.1 0.2
12/12:30am SSE 7 9 - - - - - - - 19.9 1021.4 0.2
12/12:00am SE 7 9 - - - - - - - 20.0 1021.6 0.2
 
Date/Time
EDT
Wind Sea
Height
m
Swell Vis
km
Cloud Weather Temp
°C
Press
hPa
Rain since
9am
mm
Dir  Spd
kts
Gust
kts
Height
m
Period
s
Dir
11/11:30pm SE 7 10 - - - - - - - 20.3 1021.9 0.2
11/11:00pm SE 7 12 - - - - - - - 20.6 1021.8 0.2
11/10:30pm SE 8 10 - - - - - - - 20.7 1021.8 0.2
11/10:00pm SE 9 13 - - - - - - - 20.5 1021.6 0.2
11/09:30pm SE 7 12 - - - - - - - 20.5 1021.2 0.2
11/09:00pm SE 10 13 - - - - - - - 20.5 1021.0 0.2
11/08:30pm SSE 10 13 - - - - - - - 20.5 1020.8 0.2
11/08:00pm SSE 10 13 - - - - - - - 20.6 1020.5 0.2
11/07:30pm SSE 10 12 - - - - - - - 20.7 1020.4 0.2
11/07:00pm SSE 11 13 - - - - - - - 20.8 1020.0 0.2
11/06:30pm SSE 11 14 - - - - - - - 21.3 1019.6 0.2
11/06:00pm SE 12 15 - - - - - - - 21.5 1019.4 0.2
11/05:30pm SE 13 16 - - - - - - - 22.0 1019.1 0.2
11/05:00pm SSE 13 16 - - - - - - - 22.4 1019.0 0.2
11/04:30pm SSE 13 16 - - - - - - - 22.8 1019.0 0.2
11/04:00pm SSE 13 16 - - - - - - - 23.3 1018.9 0.2
11/03:30pm SSE 15 19 - - - - - - - 22.9 1018.8 0.2
11/03:00pm SSE 14 18 - - - - - - - 22.9 1019.0 0.2
11/02:30pm SSE 15 19 - - - - - - - 23.0 1019.2 0.2
11/02:00pm SSE 14 16 - - - - - - - 23.2 1019.5 0.2
11/01:30pm SE 12 15 - - - - - - - 22.9 1019.7 0.2
11/01:00pm SE 11 14 - - - - - - - 23.0 1019.8 0.2
11/12:30pm SE 8 10 - - - - - - - 23.2 1020.0 0.2
11/12:00pm SE 8 9 - - - - - - - 23.5 1020.3 0.2
11/11:30am SE 8 9 - - - - - - - 22.9 1020.6 0.2
11/11:00am SSE 9 11 - - - - - - - 22.4 1020.7 0.2
11/10:30am SE 9 11 - - - - - - - 22.4 1020.8 0.2
11/10:00am S 6 9 - - - - - - - 21.9 1020.8 0.0
11/09:30am SSW 7 10 - - - - - - - 20.8 1020.8 0.0

Other Formats:

Comma delimited format used in spreadsheet applications
http://www.bom.gov.au/fwo/IDN60701/IDN60701.94589.axf

JavaScript Object Notation format (JSON) in row-major order
http://www.bom.gov.au/fwo/IDN60701/IDN60701.94589.json